Time;durP1;ratioP1;P1;durP2;ratioP2;P2;SDS_P1;SDS_P2;PMS_P1;PMS_P2;Temp;Humidity;BMP_temperature;BMP_pressure;BME280_temperature;BME280_humidity;BME280_pressure;Samples;Min_cycle;Max_cycle;Signal;HPM_P1;HPM_P2
2023/03/29 00:02:18;;;;;;;12.20;6.72;;;4.50;87.90;;;;;;5054381;28;20033;-47
2023/03/29 00:04:45;;;;;;;12.15;6.43;;;4.50;88.00;;;;;;5046690;28;20040;-48
2023/03/29 00:07:13;;;;;;;12.10;6.97;;;4.50;88.10;;;;;;5034132;28;20509;-48
2023/03/29 00:09:39;;;;;;;10.27;6.07;;;4.50;88.10;;;;;;5034279;28;20025;-47
2023/03/29 00:12:06;;;;;;;10.93;6.53;;;4.50;88.10;;;;;;5033904;28;20355;-47
2023/03/29 00:14:33;;;;;;;10.63;6.60;;;4.60;88.10;;;;;;5034529;28;20094;-48
2023/03/29 00:17:05;;;;;;;15.35;7.32;;;4.50;87.80;;;;;;5033132;28;20029;-49
2023/03/29 00:19:35;;;;;;;12.43;7.20;;;4.60;88.00;;;;;;5034180;28;20363;-49
2023/03/29 00:22:06;;;;;;;11.75;6.50;;;4.60;87.90;;;;;;5033846;28;20036;-49
2023/03/29 00:24:32;;;;;;;10.90;6.55;;;4.60;87.90;;;;;;5048552;28;20061;-51
2023/03/29 00:27:05;;;;;;;11.60;5.55;;;4.60;87.90;;;;;;5033773;28;20367;-50
2023/03/29 00:29:32;;;;;;;14.88;7.07;;;4.50;87.60;;;;;;5033904;28;20017;-51
2023/03/29 00:31:59;;;;;;;12.80;6.60;;;4.50;87.70;;;;;;5044250;28;20056;-53
2023/03/29 00:34:29;;;;;;;14.88;7.00;;;4.50;87.70;;;;;;5054023;28;20025;-52
2023/03/29 00:36:58;;;;;;;11.90;6.80;;;4.50;87.80;;;;;;5046814;28;20040;-52
2023/03/29 00:39:25;;;;;;;14.00;8.15;;;4.50;87.90;;;;;;5034264;28;20021;-51
2023/03/29 00:41:52;;;;;;;11.13;6.60;;;4.50;87.70;;;;;;5049521;28;20445;-49
2023/03/29 00:44:57;;;;;;;9.05;6.20;;;4.50;87.70;;;;;;5053752;28;20056;-50
2023/03/29 00:47:58;;;;;;;10.30;6.57;;;4.60;87.80;;;;;;5053184;28;20028;-50
2023/03/29 00:50:46;;;;;;;15.98;7.28;;;4.50;87.80;;;;;;5043132;28;20075;-49
2023/03/29 00:53:35;;;;;;;10.05;6.10;;;4.50;87.70;;;;;;5033245;28;20175;-48
2023/03/29 00:56:14;;;;;;;12.57;7.47;;;4.50;87.90;;;;;;5048520;28;20029;-48
2023/03/29 00:58:54;;;;;;;13.43;6.35;;;4.50;88.00;;;;;;5038177;28;20402;-50
2023/03/29 01:01:41;;;;;;;12.75;6.43;;;4.40;87.90;;;;;;5053237;28;20103;-49
2023/03/29 01:04:18;;;;;;;14.10;6.53;;;4.40;87.70;;;;;;5048426;28;20021;-49
2023/03/29 01:07:01;;;;;;;11.73;6.32;;;4.40;87.70;;;;;;5031909;28;20037;-50
2023/03/29 01:09:29;;;;;;;12.45;7.63;;;4.40;87.70;;;;;;5032006;28;20033;-48
2023/03/29 01:12:01;;;;;;;9.20;6.80;;;4.30;87.40;;;;;;5015397;28;20037;-48
2023/03/29 01:14:49;;;;;;;10.35;6.38;;;4.30;87.50;;;;;;5020105;28;20045;-48
2023/03/29 01:17:15;;;;;;;12.02;6.55;;;4.30;87.50;;;;;;5032579;28;20038;-48
2023/03/29 01:19:52;;;;;;;10.23;5.97;;;4.30;87.40;;;;;;5032950;28;20041;-49
2023/03/29 01:22:52;;;;;;;10.98;6.13;;;4.30;87.30;;;;;;5031744;28;20033;-51
2023/03/29 01:25:28;;;;;;;;;;;4.40;87.20;;;;;;5045456;28;20052;-47
2023/03/29 01:28:30;;;;;;;9.27;6.05;;;4.40;87.20;;;;;;5051570;28;19909;-47
2023/03/29 01:31:14;;;;;;;13.38;6.45;;;4.30;87.10;;;;;;5059180;28;20037;-49
2023/03/29 01:33:46;;;;;;;10.15;6.15;;;4.40;87.10;;;;;;5051489;28;20032;-50
2023/03/29 01:36:36;;;;;;;11.75;5.93;;;4.40;87.00;;;;;;5035559;28;20394;-47
2023/03/29 01:39:05;;;;;;;11.52;6.13;;;4.40;86.80;;;;;;5034747;28;20029;-47
2023/03/29 01:41:41;;;;;;;;;;;4.40;86.70;;;;;;5032424;28;20029;-47
2023/03/29 01:44:34;;;;;;;12.48;6.80;;;4.30;86.60;;;;;;5035511;28;20282;-48
2023/03/29 01:47:23;;;;;;;10.35;6.03;;;4.30;86.70;;;;;;5034758;28;20060;-47
2023/03/29 01:50:05;;;;;;;9.85;5.28;;;4.30;86.60;;;;;;5036285;28;20035;-49
2023/03/29 01:52:40;;;;;;;8.57;5.47;;;4.30;86.30;;;;;;5038548;28;20398;-46
2023/03/29 01:55:27;;;;;;;11.45;5.55;;;4.40;86.30;;;;;;5031440;28;20022;-48
2023/03/29 01:57:57;;;;;;;10.98;5.25;;;4.40;86.30;;;;;;5015376;28;20371;-46
2023/03/29 02:00:28;;;;;;;9.75;6.25;;;4.40;86.30;;;;;;5031468;28;20119;-46
2023/03/29 02:02:58;;;;;;;12.15;6.38;;;4.40;86.10;;;;;;5031667;28;20160;-47
2023/03/29 02:05:30;;;;;;;10.10;5.70;;;4.50;86.20;;;;;;5031658;28;20057;-49
2023/03/29 02:08:04;;;;;;;13.30;6.75;;;4.40;86.20;;;;;;5032460;28;20042;-47
2023/03/29 02:10:31;;;;;;;12.75;6.82;;;4.40;86.40;;;;;;5031605;28;20025;-52
2023/03/29 02:12:58;;;;;;;10.70;5.53;;;4.50;86.10;;;;;;5035398;28;20067;-46
2023/03/29 02:15:27;;;;;;;11.27;5.88;;;4.50;86.10;;;;;;5036322;28;20028;-50
2023/03/29 02:17:55;;;;;;;12.45;6.15;;;4.50;86.00;;;;;;5035130;28;20033;-47
2023/03/29 02:20:28;;;;;;;11.52;6.53;;;4.50;85.80;;;;;;5036254;28;20489;-46
2023/03/29 02:23:16;;;;;;;11.65;6.05;;;4.50;85.70;;;;;;5035453;28;20030;-46
2023/03/29 02:25:46;;;;;;;10.07;5.18;;;4.60;85.70;;;;;;5035635;28;20042;-49
2023/03/29 02:28:25;;;;;;;11.57;6.25;;;4.60;85.60;;;;;;5018336;28;20046;-47
2023/03/29 02:31:32;;;;;;;12.18;6.72;;;4.60;85.50;;;;;;5036154;28;20100;-47
2023/03/29 02:34:20;;;;;;;10.45;5.78;;;4.60;85.40;;;;;;5051193;28;20033;-47
2023/03/29 02:36:55;;;;;;;11.80;6.20;;;4.60;85.20;;;;;;5035680;28;20022;-47
2023/03/29 02:39:48;;;;;;;12.20;5.53;;;4.60;85.20;;;;;;5035895;28;20041;-45
2023/03/29 02:42:19;;;;;;;9.50;5.82;;;4.60;85.50;;;;;;5018362;28;20120;-50
2023/03/29 02:44:51;;;;;;;10.05;5.70;;;4.60;85.50;;;;;;5018442;28;20026;-45
2023/03/29 02:47:42;;;;;;;10.35;6.03;;;4.60;85.50;;;;;;5042916;28;20119;-45
2023/03/29 02:50:09;;;;;;;9.65;5.82;;;4.60;85.40;;;;;;5055571;28;20800;-45
2023/03/29 02:52:42;;;;;;;12.90;7.50;;;4.70;85.10;;;;;;5055762;28;20021;-45
2023/03/29 02:55:14;;;;;;;9.63;6.28;;;4.60;85.30;;;;;;5044071;28;20112;-45
2023/03/29 02:57:42;;;;;;;14.23;6.18;;;4.70;85.30;;;;;;5034549;28;20030;-47
2023/03/29 03:00:10;;;;;;;11.27;5.13;;;4.70;85.40;;;;;;5035680;28;20041;-45
2023/03/29 03:02:39;;;;;;;7.75;6.05;;;4.60;85.20;;;;;;5035307;28;20021;-45
2023/03/29 03:05:05;;;;;;;7.47;5.97;;;4.70;85.40;;;;;;5035491;28;20025;-45
2023/03/29 03:07:32;;;;;;;9.65;6.00;;;4.70;85.20;;;;;;5036466;28;20091;-45
2023/03/29 03:10:11;;;;;;;9.88;6.15;;;4.70;85.30;;;;;;5055512;28;20121;-45
2023/03/29 03:12:38;;;;;;;9.18;6.00;;;4.70;85.20;;;;;;5054650;28;20096;-45
2023/03/29 03:15:05;;;;;;;10.15;5.63;;;4.70;85.20;;;;;;5034657;28;20029;-46
2023/03/29 03:17:38;;;;;;;11.15;5.78;;;4.70;85.40;;;;;;5035106;28;20022;-43
2023/03/29 03:20:13;;;;;;;11.65;6.00;;;4.70;85.20;;;;;;5035111;28;20577;-45
2023/03/29 03:22:50;;;;;;;9.68;5.35;;;4.80;85.00;;;;;;5047072;28;20500;-45
2023/03/29 03:25:19;;;;;;;9.40;5.88;;;4.80;84.80;;;;;;5054766;28;20099;-45
2023/03/29 03:27:51;;;;;;;10.45;6.35;;;4.80;85.00;;;;;;5054234;28;20033;-44
2023/03/29 03:30:21;;;;;;;10.38;5.43;;;4.80;84.90;;;;;;5037647;28;20428;-45
2023/03/29 03:32:49;;;;;;;7.35;5.47;;;4.80;85.00;;;;;;5038465;28;20033;-45
2023/03/29 03:35:17;;;;;;;9.13;4.85;;;4.80;84.90;;;;;;5034359;28;20454;-44
2023/03/29 03:37:44;;;;;;;10.68;5.25;;;4.80;85.10;;;;;;5034457;28;20117;-48
2023/03/29 03:40:12;;;;;;;8.20;5.10;;;4.80;85.20;;;;;;5034702;28;20064;-46
2023/03/29 03:42:49;;;;;;;15.47;8.43;;;4.80;85.50;;;;;;5034762;28;20033;-46
2023/03/29 03:45:17;;;;;;;8.63;5.40;;;4.80;85.50;;;;;;5048246;28;20366;-46
2023/03/29 03:47:44;;;;;;;7.80;5.53;;;4.80;85.60;;;;;;5054194;28;20073;-49
2023/03/29 03:50:13;;;;;;;9.20;6.72;;;4.80;85.80;;;;;;5038297;28;20029;-45
2023/03/29 03:52:41;;;;;;;10.00;6.20;;;4.80;85.70;;;;;;5034581;28;20021;-48
2023/03/29 03:55:08;;;;;;;7.53;6.03;;;4.80;85.70;;;;;;5034662;28;20033;-44
2023/03/29 03:57:36;;;;;;;8.10;5.10;;;4.80;85.70;;;;;;5040951;28;20036;-46
2023/03/29 04:00:17;;;;;;;10.18;5.68;;;4.90;85.50;;;;;;5053860;28;20043;-44
2023/03/29 04:02:46;;;;;;;11.02;5.65;;;4.90;85.40;;;;;;5041098;28;20033;-47
2023/03/29 04:05:18;;;;;;;9.70;5.82;;;4.90;85.50;;;;;;5053340;28;20112;-48
2023/03/29 04:07:45;;;;;;;9.27;5.88;;;4.90;85.40;;;;;;5045022;28;20401;-45
2023/03/29 04:10:11;;;;;;;8.07;5.65;;;4.90;85.50;;;;;;5052910;28;20037;-43
2023/03/29 04:12:38;;;;;;;8.43;6.10;;;4.90;85.80;;;;;;5039320;28;20033;-47
2023/03/29 04:15:05;;;;;;;11.40;6.65;;;4.90;85.90;;;;;;5048850;28;20044;-45
2023/03/29 04:17:35;;;;;;;10.05;6.35;;;4.90;86.10;;;;;;5041712;28;20040;-49
2023/03/29 04:20:11;;;;;;;12.40;6.25;;;4.90;86.10;;;;;;5034093;28;20029;-48
2023/03/29 04:22:49;;;;;;;9.68;6.22;;;4.90;86.00;;;;;;5033668;28;20052;-47
2023/03/29 04:25:15;;;;;;;12.50;8.77;;;4.90;86.20;;;;;;5047471;28;20124;-49
2023/03/29 04:27:43;;;;;;;13.05;8.23;;;4.90;86.40;;;;;;5050887;28;20517;-45
2023/03/29 04:30:13;;;;;;;11.00;7.95;;;4.90;86.40;;;;;;5036006;28;20370;-46
2023/03/29 04:32:39;;;;;;;11.93;8.20;;;4.90;86.50;;;;;;5018835;28;20052;-46
2023/03/29 04:35:09;;;;;;;13.20;8.80;;;4.90;86.40;;;;;;5047554;28;20021;-45
2023/03/29 04:37:39;;;;;;;11.90;8.20;;;5.00;86.50;;;;;;5048115;28;20028;-49
2023/03/29 04:40:08;;;;;;;12.25;8.82;;;4.90;86.60;;;;;;5033756;28;20033;-44
2023/03/29 04:42:36;;;;;;;16.20;8.35;;;5.00;86.70;;;;;;5033207;28;20175;-44
2023/03/29 04:45:05;;;;;;;13.10;9.23;;;4.90;86.90;;;;;;5049051;28;20037;-44
2023/03/29 04:47:34;;;;;;;11.57;8.80;;;4.90;87.00;;;;;;5033000;28;20518;-46
2023/03/29 04:50:03;;;;;;;14.20;8.90;;;5.00;87.00;;;;;;5033213;28;20451;-45
2023/03/29 04:52:32;;;;;;;13.52;9.43;;;5.00;87.00;;;;;;5040090;28;20146;-44
2023/03/29 04:55:01;;;;;;;15.35;9.15;;;5.00;86.90;;;;;;5051765;28;20504;-44
2023/03/29 04:57:28;;;;;;;12.75;9.68;;;5.00;86.80;;;;;;5051835;28;20045;-44
2023/03/29 04:59:56;;;;;;;12.68;9.82;;;5.00;86.90;;;;;;5042627;28;20113;-46
2023/03/29 05:02:22;;;;;;;14.73;10.27;;;5.00;86.90;;;;;;5038676;28;20050;-48
2023/03/29 05:04:51;;;;;;;17.77;10.25;;;5.00;87.10;;;;;;5051293;28;20033;-45
2023/03/29 05:07:18;;;;;;;13.70;10.90;;;5.00;87.20;;;;;;5039825;28;20033;-44
2023/03/29 05:09:46;;;;;;;14.85;10.35;;;5.00;87.20;;;;;;5045366;28;20067;-46
2023/03/29 05:12:13;;;;;;;19.35;11.68;;;5.00;87.10;;;;;;5041869;28;20029;-44
2023/03/29 05:14:41;;;;;;;15.23;10.98;;;5.00;87.10;;;;;;5032819;28;20029;-44
2023/03/29 05:17:08;;;;;;;19.05;11.80;;;5.00;87.20;;;;;;5033050;28;20034;-47
2023/03/29 05:19:35;;;;;;;17.77;11.30;;;5.00;87.20;;;;;;5033148;28;20041;-44
2023/03/29 05:22:03;;;;;;;16.05;11.07;;;5.10;87.00;;;;;;5033576;28;20246;-46
2023/03/29 05:24:31;;;;;;;16.65;11.60;;;5.10;87.00;;;;;;5032767;28;20060;-47
2023/03/29 05:26:58;;;;;;;14.48;11.10;;;5.10;87.10;;;;;;5032483;28;20057;-45
2023/03/29 05:29:26;;;;;;;13.77;11.68;;;5.10;87.20;;;;;;5033051;28;20021;-45
2023/03/29 05:32:02;;;;;;;16.13;12.73;;;5.20;87.00;;;;;;5033127;28;20029;-46
2023/03/29 05:34:30;;;;;;;17.13;11.75;;;5.20;87.00;;;;;;5048337;28;20101;-45
2023/03/29 05:37:00;;;;;;;15.02;11.90;;;5.20;87.20;;;;;;5032899;28;20022;-48
2023/03/29 05:39:30;;;;;;;;;;;5.20;87.30;;;;;;5033179;28;20505;-48
2023/03/29 05:41:59;;;;;;;15.07;12.02;;;5.20;87.30;;;;;;5032878;28;19916;-52
2023/03/29 05:44:26;;;;;;;17.25;12.68;;;5.20;87.20;;;;;;5034643;28;20051;-45
2023/03/29 05:46:53;;;;;;;18.17;12.90;;;5.20;87.20;;;;;;5051274;28;20025;-43
2023/03/29 05:49:19;;;;;;;17.80;13.70;;;5.30;87.30;;;;;;5052410;28;20052;-48
2023/03/29 05:51:47;;;;;;;21.52;13.25;;;5.20;87.30;;;;;;5038335;28;20451;-44
2023/03/29 05:54:14;;;;;;;17.40;12.73;;;5.20;87.40;;;;;;5032388;28;20414;-43
2023/03/29 05:56:43;;;;;;;18.35;14.38;;;5.30;87.30;;;;;;5032465;28;20557;-44
2023/03/29 05:59:10;;;;;;;18.95;12.93;;;5.30;87.30;;;;;;5032571;28;20033;-45
2023/03/29 06:01:38;;;;;;;17.63;13.75;;;5.30;87.10;;;;;;5032630;28;20025;-44
2023/03/29 06:04:07;;;;;;;16.45;13.07;;;5.30;87.30;;;;;;5032320;28;20018;-45
2023/03/29 06:06:37;;;;;;;16.20;12.82;;;5.30;87.40;;;;;;5032440;28;20021;-45
2023/03/29 06:09:04;;;;;;;15.82;13.13;;;5.40;87.30;;;;;;5032470;28;20026;-44
2023/03/29 06:11:33;;;;;;;16.60;13.05;;;5.40;87.40;;;;;;5032939;28;20064;-44
2023/03/29 06:14:01;;;;;;;18.20;12.95;;;5.40;87.30;;;;;;5032170;28;20034;-44
2023/03/29 06:16:33;;;;;;;16.02;13.25;;;5.40;87.30;;;;;;5047965;28;20335;-45
2023/03/29 06:18:59;;;;;;;16.05;14.35;;;5.40;87.30;;;;;;5032310;28;20378;-44
2023/03/29 06:21:27;;;;;;;20.00;14.38;;;5.50;87.40;;;;;;5032444;28;20026;-44
2023/03/29 06:23:55;;;;;;;19.58;14.52;;;5.40;87.40;;;;;;5032138;28;20412;-43
2023/03/29 06:26:23;;;;;;;16.88;13.85;;;5.50;87.40;;;;;;5032177;28;20398;-44
2023/03/29 06:28:52;;;;;;;20.90;13.48;;;5.50;87.30;;;;;;5031218;28;20052;-44
2023/03/29 06:31:19;;;;;;;17.27;13.32;;;5.50;87.30;;;;;;5032063;28;20030;-44
2023/03/29 06:33:50;;;;;;;16.27;13.38;;;5.50;87.30;;;;;;5032136;28;20025;-44
2023/03/29 06:36:19;;;;;;;19.13;13.32;;;5.60;87.20;;;;;;5030638;28;20590;-45
2023/03/29 06:38:45;;;;;;;16.87;13.50;;;5.60;87.30;;;;;;5047067;28;20424;-44
2023/03/29 06:41:11;;;;;;;16.40;14.25;;;5.70;87.20;;;;;;5031884;28;20124;-45
2023/03/29 06:43:43;;;;;;;19.48;15.27;;;5.70;87.20;;;;;;5047342;28;20025;-45
2023/03/29 06:46:15;;;;;;;15.98;13.02;;;5.70;87.20;;;;;;5032077;28;20089;-44
2023/03/29 06:48:43;;;;;;;19.08;15.65;;;5.80;87.10;;;;;;5032030;28;20134;-45
2023/03/29 06:51:11;;;;;;;17.02;13.30;;;5.70;87.10;;;;;;5047630;28;20124;-44
2023/03/29 06:53:38;;;;;;;20.35;14.20;;;5.80;87.40;;;;;;5032180;28;20455;-45
2023/03/29 06:56:07;;;;;;;18.77;15.32;;;5.80;87.60;;;;;;5031863;28;20034;-46
2023/03/29 06:58:35;;;;;;;21.33;15.60;;;5.80;87.60;;;;;;5034318;28;20056;-44
2023/03/29 07:01:02;;;;;;;21.48;14.57;;;5.90;87.70;;;;;;5035589;28;20033;-46
2023/03/29 07:03:28;;;;;;;19.30;13.15;;;5.90;87.70;;;;;;5035523;28;20040;-44
2023/03/29 07:06:08;;;;;;;20.13;14.02;;;5.80;87.70;;;;;;5051088;28;20022;-44
2023/03/29 07:08:42;;;;;;;19.70;13.95;;;5.80;88.00;;;;;;5034371;28;20466;-45
2023/03/29 07:11:14;;;;;;;18.60;12.90;;;5.90;88.30;;;;;;5034601;28;20037;-45
2023/03/29 07:13:42;;;;;;;17.13;14.70;;;5.90;88.40;;;;;;5050880;28;20029;-47
2023/03/29 07:16:12;;;;;;;17.60;13.75;;;5.90;88.30;;;;;;5034363;28;20466;-46
2023/03/29 07:18:42;;;;;;;17.95;13.68;;;5.90;88.20;;;;;;5034773;28;20039;-47
2023/03/29 07:21:11;;;;;;;16.77;13.02;;;5.90;88.40;;;;;;5034202;28;20033;-47
2023/03/29 07:23:39;;;;;;;24.50;14.18;;;5.90;88.30;;;;;;5034104;28;20044;-46
2023/03/29 07:26:09;;;;;;;19.25;14.48;;;5.90;88.10;;;;;;5035051;28;20091;-45
2023/03/29 07:28:38;;;;;;;17.00;12.85;;;5.90;88.30;;;;;;5033891;28;20033;-50
2023/03/29 07:31:24;;;;;;;18.70;13.48;;;5.90;88.30;;;;;;5034461;28;20036;-48
2023/03/29 07:33:54;;;;;;;20.70;15.02;;;5.90;88.40;;;;;;5034391;28;20107;-47
2023/03/29 07:36:24;;;;;;;18.70;13.90;;;6.00;88.50;;;;;;5035049;28;20033;-47
2023/03/29 07:38:51;;;;;;;16.80;14.23;;;6.00;88.60;;;;;;5034041;28;20045;-49
2023/03/29 07:41:18;;;;;;;17.77;14.02;;;6.00;88.50;;;;;;5034603;28;20025;-45
2023/03/29 07:43:44;;;;;;;18.10;14.52;;;6.00;88.60;;;;;;5034699;28;20053;-45
2023/03/29 07:46:11;;;;;;;17.58;13.88;;;6.10;88.60;;;;;;5034530;28;20072;-45
2023/03/29 07:48:38;;;;;;;20.77;13.98;;;6.30;88.70;;;;;;5033490;28;20030;-48
2023/03/29 07:51:07;;;;;;;17.52;13.38;;;6.30;88.60;;;;;;5034502;28;20061;-47
2023/03/29 07:53:34;;;;;;;18.58;13.48;;;6.20;88.40;;;;;;5034470;28;20113;-50
2023/03/29 07:56:00;;;;;;;24.50;15.20;;;6.30;88.60;;;;;;5049901;28;20025;-47
2023/03/29 07:58:26;;;;;;;18.23;14.73;;;6.30;88.50;;;;;;5036899;28;20446;-49
2023/03/29 08:00:53;;;;;;;18.90;14.93;;;6.30;88.50;;;;;;5054297;28;20077;-46
2023/03/29 08:03:18;;;;;;;20.58;13.93;;;6.40;88.50;;;;;;5054274;28;20037;-44
2023/03/29 08:05:46;;;;;;;19.58;14.18;;;6.40;88.50;;;;;;5037122;28;20362;-45
2023/03/29 08:08:13;;;;;;;18.63;14.32;;;6.40;88.60;;;;;;5034458;28;20060;-45
2023/03/29 08:10:41;;;;;;;17.75;14.13;;;6.40;88.80;;;;;;5033534;28;20031;-45
2023/03/29 08:13:10;;;;;;;22.77;15.50;;;6.40;88.90;;;;;;5044541;28;20091;-46
2023/03/29 08:15:40;;;;;;;18.40;13.75;;;6.50;88.90;;;;;;5054122;28;20365;-51
2023/03/29 08:18:11;;;;;;;18.90;15.05;;;6.50;88.80;;;;;;5053275;28;20035;-48
2023/03/29 08:20:41;;;;;;;27.83;15.68;;;6.50;89.00;;;;;;5053869;28;20508;-48
2023/03/29 08:23:08;;;;;;;17.40;14.35;;;6.50;89.20;;;;;;5035855;28;20059;-47
2023/03/29 08:25:35;;;;;;;20.00;15.70;;;6.60;89.30;;;;;;5032468;28;20383;-48
2023/03/29 08:28:08;;;;;;;18.08;14.85;;;6.60;89.30;;;;;;5034939;28;20049;-45
2023/03/29 08:30:34;;;;;;;21.63;16.50;;;6.60;89.60;;;;;;5053690;28;20024;-49
2023/03/29 08:33:01;;;;;;;17.13;14.35;;;6.60;89.50;;;;;;5053920;28;20029;-45
2023/03/29 08:35:31;;;;;;;18.85;15.63;;;6.60;89.70;;;;;;5053653;28;20028;-46
2023/03/29 08:37:58;;;;;;;20.05;15.90;;;6.70;89.60;;;;;;5047062;28;20102;-47
2023/03/29 08:40:31;;;;;;;19.75;15.63;;;6.60;89.50;;;;;;5033667;28;20029;-47
2023/03/29 08:43:34;;;;;;;21.65;16.52;;;6.70;89.70;;;;;;5033654;28;20032;-46
2023/03/29 08:46:18;;;;;;;25.52;16.83;;;6.80;89.60;;;;;;5033302;28;20026;-47
2023/03/29 08:48:55;;;;;;;19.77;16.63;;;6.90;89.40;;;;;;5033022;28;20414;-49
2023/03/29 08:51:37;;;;;;;19.83;15.63;;;6.90;89.30;;;;;;5033598;28;20164;-49
2023/03/29 08:54:27;;;;;;;22.00;17.27;;;6.90;89.00;;;;;;5038263;28;20048;-45
2023/03/29 08:57:19;;;;;;;19.02;15.35;;;6.90;88.80;;;;;;5053575;28;20044;-46
2023/03/29 08:59:52;;;;;;;20.08;15.73;;;7.00;88.70;;;;;;5052531;28;20455;-45
2023/03/29 09:02:25;;;;;;;19.58;16.20;;;6.90;88.60;;;;;;5052039;28;20053;-45
2023/03/29 09:05:13;;;;;;;19.75;16.13;;;6.90;88.90;;;;;;5018373;28;20030;-45
2023/03/29 09:07:40;;;;;;;20.83;14.60;;;6.90;89.10;;;;;;5036963;28;20087;-45
2023/03/29 09:10:17;;;;;;;21.88;15.60;;;7.00;89.20;;;;;;5052388;28;20096;-45
2023/03/29 09:13:23;;;;;;;21.52;16.90;;;7.00;89.30;;;;;;5052270;28;20029;-45
2023/03/29 09:16:08;;;;;;;20.15;14.52;;;7.00;89.20;;;;;;5051955;28;20032;-47
2023/03/29 09:19:06;;;;;;;20.55;16.27;;;7.10;89.40;;;;;;5034451;28;20079;-45
2023/03/29 09:21:50;;;;;;;18.58;15.52;;;7.10;89.20;;;;;;5046572;28;20124;-45
2023/03/29 09:24:43;;;;;;;19.75;15.77;;;7.20;89.20;;;;;;5032796;28;20073;-46
2023/03/29 09:27:19;;;;;;;21.98;14.70;;;7.10;89.20;;;;;;5032835;28;20044;-47
2023/03/29 09:30:25;;;;;;;17.48;15.27;;;7.10;89.20;;;;;;5035129;28;20397;-45
2023/03/29 09:33:04;;;;;;;18.88;15.18;;;7.20;89.40;;;;;;5052605;28;20143;-43
2023/03/29 09:36:11;;;;;;;19.50;16.23;;;7.20;89.60;;;;;;5034675;28;20025;-43
2023/03/29 09:38:45;;;;;;;19.83;16.35;;;7.30;89.60;;;;;;4991412;28;20038;-43
2023/03/29 09:41:34;;;;;;;26.42;17.42;;;7.30;89.50;;;;;;4975511;28;20046;-42
2023/03/29 09:44:07;;;;;;;18.30;16.17;;;7.40;89.40;;;;;;4991120;28;20380;-44
2023/03/29 09:46:43;;;;;;;20.35;16.13;;;7.40;89.50;;;;;;4959237;28;20116;-44
2023/03/29 09:49:21;;;;;;;18.52;16.52;;;7.40;89.70;;;;;;4975074;28;20034;-44
2023/03/29 09:51:53;;;;;;;21.77;16.55;;;7.60;89.90;;;;;;4991855;28;20440;-43
2023/03/29 09:54:19;;;;;;;22.33;16.88;;;7.60;89.70;;;;;;5010508;28;20444;-43
2023/03/29 09:56:47;;;;;;;20.63;16.70;;;7.60;89.70;;;;;;5010773;28;20037;-43
2023/03/29 09:59:20;;;;;;;17.65;15.70;;;7.70;89.70;;;;;;5010220;28;20141;-43
2023/03/29 10:01:48;;;;;;;21.02;16.25;;;7.80;89.60;;;;;;4991233;28;20109;-43
2023/03/29 10:04:15;;;;;;;21.98;16.25;;;7.90;89.10;;;;;;5004940;28;20105;-43
2023/03/29 10:06:48;;;;;;;19.30;15.73;;;7.80;88.90;;;;;;5010587;28;20036;-43
2023/03/29 10:09:27;;;;;;;25.60;17.15;;;7.90;88.70;;;;;;4994113;28;20080;-42
2023/03/29 10:12:03;;;;;;;20.55;15.45;;;8.00;88.50;;;;;;5015359;28;20043;-43
2023/03/29 10:14:37;;;;;;;19.27;15.85;;;8.00;88.20;;;;;;5031610;28;20025;-43
2023/03/29 10:17:32;;;;;;;19.02;15.95;;;8.10;88.40;;;;;;5047876;28;20033;-44
2023/03/29 10:20:04;;;;;;;16.40;14.47;;;8.20;88.20;;;;;;5032334;28;20037;-43
2023/03/29 10:22:41;;;;;;;17.33;15.10;;;8.50;88.20;;;;;;5032722;28;20057;-46
2023/03/29 10:25:17;;;;;;;22.05;15.30;;;8.70;87.70;;;;;;5031020;28;20034;-43
2023/03/29 10:27:45;;;;;;;18.63;15.82;;;8.90;86.60;;;;;;5037936;28;20051;-44
2023/03/29 10:30:24;;;;;;;20.27;14.88;;;8.90;86.60;;;;;;5051325;28;20686;-44
2023/03/29 10:32:58;;;;;;;17.42;14.20;;;9.20;86.80;;;;;;5035820;28;20037;-44
2023/03/29 10:35:38;;;;;;;16.10;13.75;;;9.40;86.40;;;;;;5054540;28;20075;-43
2023/03/29 10:38:12;;;;;;;17.83;14.27;;;9.50;84.50;;;;;;5034916;28;20041;-45
2023/03/29 10:40:45;;;;;;;22.90;14.20;;;9.60;85.20;;;;;;5035173;28;20033;-46
2023/03/29 10:43:23;;;;;;;19.25;14.88;;;9.70;84.40;;;;;;5036020;28;20405;-43
2023/03/29 10:45:53;;;;;;;16.52;13.90;;;9.80;83.70;;;;;;5035849;28;20046;-46
2023/03/29 10:48:29;;;;;;;15.48;12.30;;;9.90;83.90;;;;;;5035826;28;20519;-45
2023/03/29 10:51:01;;;;;;;14.70;13.15;;;9.90;83.10;;;;;;5034900;28;20041;-44
2023/03/29 10:53:46;;;;;;;17.98;14.35;;;9.90;83.20;;;;;;5053445;28;20055;-43
2023/03/29 10:56:31;;;;;;;17.50;14.50;;;9.90;83.50;;;;;;5055555;28;20502;-43
2023/03/29 10:59:36;;;;;;;19.02;13.80;;;9.90;83.40;;;;;;5055574;28;20362;-44
2023/03/29 11:02:32;;;;;;;16.67;13.10;;;9.90;83.50;;;;;;5048058;28;20029;-45
2023/03/29 11:05:32;;;;;;;16.98;12.68;;;10.00;83.90;;;;;;5035508;28;20145;-43
2023/03/29 11:08:32;;;;;;;17.77;12.40;;;10.30;83.20;;;;;;5035560;28;20082;-49
2023/03/29 11:11:28;;;;;;;18.05;13.68;;;10.30;82.50;;;;;;5043665;28;20108;-45
2023/03/29 11:14:26;;;;;;;18.67;14.23;;;10.40;82.70;;;;;;5055171;28;20025;-48
2023/03/29 11:17:11;;;;;;;17.33;13.40;;;10.40;82.30;;;;;;5052915;28;20469;-45
2023/03/29 11:20:11;;;;;;;16.55;12.48;;;10.50;82.20;;;;;;5035463;28;20017;-46
2023/03/29 11:23:07;;;;;;;16.58;12.88;;;10.60;82.70;;;;;;5035185;28;20028;-48
2023/03/29 11:26:02;;;;;;;18.02;13.00;;;10.60;81.80;;;;;;5034971;28;20490;-45
2023/03/29 11:29:03;;;;;;;15.90;12.57;;;10.70;82.50;;;;;;5052262;28;20458;-46
2023/03/29 11:31:43;;;;;;;18.15;12.85;;;10.80;81.80;;;;;;5048220;28;20022;-48
2023/03/29 11:34:33;;;;;;;14.98;12.88;;;10.90;80.90;;;;;;5034689;28;20112;-46
2023/03/29 11:37:40;;;;;;;15.43;12.05;;;10.80;81.40;;;;;;5034904;28;20021;-45
2023/03/29 11:40:40;;;;;;;14.68;11.60;;;10.80;81.40;;;;;;5017122;28;20523;-45
2023/03/29 11:43:46;;;;;;;14.23;12.68;;;10.70;81.10;;;;;;5034358;28;20104;-47
2023/03/29 11:46:46;;;;;;;15.95;11.93;;;10.60;81.70;;;;;;5032626;28;20026;-44
2023/03/29 11:49:41;;;;;;;15.43;12.60;;;10.40;82.10;;;;;;5033803;28;20033;-46
2023/03/29 11:52:27;;;;;;;15.07;11.52;;;10.40;82.60;;;;;;5034017;28;20025;-44
2023/03/29 11:55:09;;;;;;;20.58;13.98;;;10.50;82.70;;;;;;5034675;28;20037;-49
2023/03/29 11:58:07;;;;;;;15.02;12.27;;;10.40;82.80;;;;;;5034284;28;20045;-48
2023/03/29 12:00:43;;;;;;;13.43;12.02;;;10.50;83.00;;;;;;5034378;28;20053;-46
2023/03/29 12:03:31;;;;;;;20.20;13.23;;;10.40;83.00;;;;;;5034259;28;20477;-45
2023/03/29 12:06:15;;;;;;;14.43;12.00;;;10.40;83.00;;;;;;5034448;28;20033;-46
2023/03/29 12:09:12;;;;;;;17.92;12.82;;;10.40;83.30;;;;;;5033266;28;20391;-47
2023/03/29 12:11:44;;;;;;;15.25;13.05;;;10.40;83.30;;;;;;5034232;28;20029;-45
2023/03/29 12:14:29;;;;;;;13.40;12.00;;;10.40;83.80;;;;;;5032885;28;20116;-43
2023/03/29 12:17:03;;;;;;;13.60;12.18;;;10.30;83.60;;;;;;5034074;28;20100;-46
2023/03/29 12:20:09;;;;;;;18.10;12.60;;;10.40;84.00;;;;;;5033495;28;20075;-44
2023/03/29 12:22:37;;;;;;;14.27;12.73;;;10.40;83.80;;;;;;5034126;28;20026;-45
2023/03/29 12:25:09;;;;;;;16.17;13.30;;;10.50;83.70;;;;;;5032735;28;20050;-44
2023/03/29 12:28:03;;;;;;;19.58;13.30;;;10.60;83.40;;;;;;5049929;28;20528;-46
2023/03/29 12:30:37;;;;;;;15.10;11.90;;;10.70;83.30;;;;;;5033878;28;20034;-43
2023/03/29 12:33:23;;;;;;;15.20;12.65;;;10.70;83.40;;;;;;5033920;28;20441;-46
2023/03/29 12:36:34;;;;;;;18.40;12.55;;;10.70;82.70;;;;;;5034011;28;20026;-45
2023/03/29 12:39:03;;;;;;;15.43;12.68;;;10.80;82.90;;;;;;5014608;28;20041;-45
2023/03/29 12:41:40;;;;;;;14.43;12.77;;;10.90;82.80;;;;;;5032484;28;20511;-46
2023/03/29 12:44:14;;;;;;;18.55;13.18;;;10.90;83.00;;;;;;5033668;28;20038;-44
2023/03/29 12:46:43;;;;;;;17.67;12.90;;;10.90;82.80;;;;;;5039585;28;20112;-44
2023/03/29 12:49:22;;;;;;;14.65;11.43;;;11.00;82.30;;;;;;5053177;28;20067;-45
2023/03/29 12:51:51;;;;;;;13.45;11.40;;;11.00;82.40;;;;;;5052168;28;20060;-45
2023/03/29 12:54:25;;;;;;;16.00;11.57;;;11.10;82.00;;;;;;5053130;28;20032;-43
2023/03/29 12:57:35;;;;;;;15.77;12.45;;;11.10;81.90;;;;;;5034282;28;20033;-46
2023/03/29 13:00:22;;;;;;;15.77;13.13;;;11.30;82.50;;;;;;5014017;28;20470;-45
2023/03/29 13:03:39;;;;;;;16.90;13.68;;;11.40;82.00;;;;;;5041784;28;20051;-50
2023/03/29 13:06:11;;;;;;;14.02;12.52;;;11.30;82.20;;;;;;4972430;28;20472;-45
2023/03/29 13:08:57;;;;;;;18.67;13.02;;;11.40;82.10;;;;;;5046120;28;20159;-45
2023/03/29 13:11:41;;;;;;;17.00;11.93;;;11.40;82.20;;;;;;5043625;28;20033;-44
2023/03/29 13:14:18;;;;;;;16.23;11.50;;;11.60;82.00;;;;;;5032726;28;20399;-46
2023/03/29 13:16:45;;;;;;;14.07;12.05;;;11.70;81.80;;;;;;5031920;28;20120;-46
2023/03/29 13:19:51;;;;;;;15.15;12.15;;;11.80;81.30;;;;;;5052583;28;20020;-45
2023/03/29 13:22:20;;;;;;;12.55;10.85;;;11.80;81.20;;;;;;5050182;28;20033;-49
2023/03/29 13:25:19;;;;;;;13.68;10.65;;;11.90;81.40;;;;;;5032702;28;20136;-46